Time;durP1;ratioP1;P1;durP2;ratioP2;P2;SDS_P1;SDS_P2;PMS_P1;PMS_P2;Temp;Humidity;BMP_temperature;BMP_pressure;BME280_temperature;BME280_humidity;BME280_pressure;Samples;Min_cycle;Max_cycle;Signal;HPM_P1;HPM_P2
2023/03/28 00:02:20;;;;;;;;;;;4.10;73.80;;;;;;9181687;19;20400;-67
2023/03/28 00:05:28;;;;;;;;;;;4.10;73.90;;;;;;9183689;19;19960;-67
2023/03/28 00:08:32;;;;;;;;;;;4.00;73.80;;;;;;9181325;19;19918;-67
2023/03/28 00:11:37;;;;;;;;;;;4.00;73.80;;;;;;9180897;19;19919;-66
2023/03/28 00:14:42;;;;;;;;;;;4.00;73.80;;;;;;9182930;19;20337;-66
2023/03/28 00:17:48;;;;;;;;;;;4.00;73.80;;;;;;9181657;19;19983;-67
2023/03/28 00:20:54;;;;;;;;;;;4.00;73.90;;;;;;9182279;19;19925;-66
2023/03/28 00:24:00;;;;;;;;;;;3.90;73.80;;;;;;9180483;19;19919;-66
2023/03/28 00:27:06;;;;;;;;;;;3.90;73.80;;;;;;9180657;19;19922;-66
2023/03/28 00:30:12;;;;;;;;;;;3.90;73.90;;;;;;9177478;19;19911;-66
2023/03/28 00:33:17;;;;;;;;;;;3.90;73.90;;;;;;9181915;19;19922;-66
2023/03/28 00:36:28;;;;;;;;;;;3.90;73.90;;;;;;9182250;19;19919;-66
2023/03/28 00:39:32;;;;;;;;;;;3.90;73.90;;;;;;9180766;19;19915;-67
2023/03/28 00:42:41;;;;;;;;;;;3.90;73.90;;;;;;9181608;19;20351;-67
2023/03/28 00:45:46;;;;;;;;;;;3.80;73.90;;;;;;9181670;19;19935;-67
2023/03/28 00:49:11;;;;;;;;;;;3.80;73.90;;;;;;9180811;19;20333;-66
2023/03/28 00:52:17;;;;;;;;;;;3.80;73.90;;;;;;9179948;19;19938;-67
2023/03/28 00:55:26;;;;;;;;;;;3.80;73.90;;;;;;9179819;19;20313;-67
2023/03/28 00:58:31;;;;;;;;;;;3.80;74.00;;;;;;9182050;19;19915;-67
2023/03/28 01:01:37;;;;;;;;;;;3.80;74.00;;;;;;9178309;19;19919;-67
2023/03/28 01:04:45;;;;;;;;;;;3.80;74.00;;;;;;9179140;19;19927;-67
2023/03/28 01:07:55;;;;;;;;;;;3.80;74.00;;;;;;9179619;19;19919;-67
2023/03/28 01:10:59;;;;;;;;;;;3.70;74.00;;;;;;9175760;19;19922;-67
2023/03/28 01:14:06;;;;;;;;;;;3.80;74.00;;;;;;9179069;19;19918;-67
2023/03/28 01:17:10;;;;;;;;;;;3.80;74.00;;;;;;9179188;19;19919;-67
2023/03/28 01:20:25;;;;;;;;;;;3.70;74.00;;;;;;9179129;19;19926;-67
2023/03/28 01:23:49;;;;;;;;;;;3.70;74.00;;;;;;9180373;19;20317;-67
2023/03/28 01:26:59;;;;;;;;;;;3.70;74.00;;;;;;9179313;19;19919;-67
2023/03/28 01:30:28;;;;;;;;;;;3.60;73.90;;;;;;9176987;19;19919;-67
2023/03/28 01:34:06;;;;;;;;;;;3.70;74.00;;;;;;9179008;19;19918;-67
2023/03/28 01:37:19;;;;;;;;;;;3.60;73.90;;;;;;9178716;19;19911;-67
2023/03/28 01:40:35;;;;;;;;;;;3.60;73.90;;;;;;9178185;19;19923;-67
2023/03/28 01:43:45;;;;;;;;;;;3.60;74.00;;;;;;9172715;19;19914;-67
2023/03/28 01:46:57;;;;;;;;;;;3.60;74.00;;;;;;9179557;19;19929;-67
2023/03/28 01:50:03;;;;;;;;;;;3.60;74.00;;;;;;9177309;19;20023;-67
2023/03/28 01:53:16;;;;;;;;;;;3.60;74.10;;;;;;9175199;19;19918;-67
2023/03/28 01:56:22;;;;;;;;;;;3.50;74.00;;;;;;9178357;19;19917;-66
2023/03/28 01:59:34;;;;;;;;;;;3.50;74.00;;;;;;9177642;19;19919;-66
2023/03/28 02:03:09;;;;;;;;;;;3.50;74.10;;;;;;9177548;19;19919;-66
2023/03/28 02:06:22;;;;;;;;;;;3.50;74.10;;;;;;9177934;19;19919;-65
2023/03/28 02:09:30;;;;;;;;;;;3.50;74.00;;;;;;9174315;19;20264;-66
2023/03/28 02:12:47;;;;;;;;;;;3.50;74.10;;;;;;9177120;19;19929;-66
2023/03/28 02:16:12;;;;;;;;;;;3.50;74.10;;;;;;9178519;19;20080;-66
2023/03/28 02:19:39;;;;;;;;;;;3.40;74.10;;;;;;9178429;19;20241;-66
2023/03/28 02:23:03;;;;;;;;;;;3.50;74.10;;;;;;9176330;19;19949;-66
2023/03/28 02:26:28;;;;;;;;;;;3.40;74.10;;;;;;9176611;19;20274;-66
2023/03/28 02:29:53;;;;;;;;;;;3.40;74.10;;;;;;9174889;19;19930;-65
2023/03/28 02:33:30;;;;;;;;;;;3.40;74.10;;;;;;9178254;19;19918;-66
2023/03/28 02:36:37;;;;;;;;;;;3.30;74.70;;;;;;9176335;19;19914;-66
2023/03/28 02:39:47;;;;;;;;;;;3.40;74.10;;;;;;9177926;19;19918;-66
2023/03/28 02:43:04;;;;;;;;;;;3.30;74.10;;;;;;9170903;19;19923;-66
2023/03/28 02:46:14;;;;;;;;;;;3.30;74.20;;;;;;9175416;19;20308;-66
2023/03/28 02:49:28;;;;;;;;;;;3.30;74.20;;;;;;9173560;19;19927;-66
2023/03/28 02:52:52;;;;;;;;;;;3.20;74.10;;;;;;9176795;19;19930;-66
2023/03/28 02:55:59;;;;;;;;;;;3.20;74.10;;;;;;9185267;19;19915;-66
2023/03/28 02:59:28;;;;;;;;;;;3.20;74.10;;;;;;9184173;19;19915;-66
2023/03/28 03:02:32;;;;;;;;;;;3.20;74.20;;;;;;9185101;19;20351;-66
2023/03/28 03:05:38;;;;;;;;;;;3.10;74.10;;;;;;9185504;19;19926;-66
2023/03/28 03:08:42;;;;;;;;;;;3.10;74.10;;;;;;9181648;19;19934;-66
2023/03/28 03:11:49;;;;;;;;;;;3.10;74.10;;;;;;9184113;19;19939;-66
2023/03/28 03:14:59;;;;;;;;;;;3.10;74.10;;;;;;9182954;19;19919;-67
2023/03/28 03:18:26;;;;;;;;;;;3.10;74.20;;;;;;9183030;19;19915;-66
2023/03/28 03:21:30;;;;;;;;;;;3.00;74.20;;;;;;9182961;19;19982;-66
2023/03/28 03:24:38;;;;;;;;;;;3.00;74.20;;;;;;9184056;19;20147;-66
2023/03/28 03:27:42;;;;;;;;;;;3.00;74.20;;;;;;9183900;19;19922;-66
2023/03/28 03:30:52;;;;;;;;;;;2.90;74.20;;;;;;9180859;19;19915;-65
2023/03/28 03:34:27;;;;;;;;;;;3.00;74.20;;;;;;9183351;19;19938;-66
2023/03/28 03:37:36;;;;;;;;;;;3.00;74.20;;;;;;9182695;19;19930;-67
2023/03/28 03:40:39;;;;;;;;;;;2.90;74.20;;;;;;9182283;19;19918;-66
2023/03/28 03:43:45;;;;;;;;;;;2.90;74.30;;;;;;9175512;19;20248;-65
2023/03/28 03:46:52;;;;;;;;;;;2.90;74.30;;;;;;9182295;19;19915;-67
2023/03/28 03:49:58;;;;;;;;;;;2.90;74.30;;;;;;9181694;19;19923;-67
2023/03/28 03:53:02;;;;;;;;;;;2.90;74.30;;;;;;9183122;19;19923;-66
2023/03/28 03:56:15;;;;;;;;;;;2.90;74.30;;;;;;9181780;19;19926;-67
2023/03/28 03:59:30;;;;;;;;;;;2.80;74.20;;;;;;9181939;19;19922;-66
2023/03/28 04:02:38;;;;;;;;;;;2.80;74.20;;;;;;9181440;19;19918;-67
2023/03/28 04:05:42;;;;;;;;;;;2.80;74.30;;;;;;9179388;19;19937;-66
2023/03/28 04:08:50;;;;;;;;;;;2.80;74.30;;;;;;9179928;19;19921;-66
2023/03/28 04:12:04;;;;;;;;;;;2.80;74.30;;;;;;9181173;19;19915;-66
2023/03/28 04:15:15;;;;;;;;;;;2.80;74.40;;;;;;9181679;19;19925;-66
2023/03/28 04:18:44;;;;;;;;;;;2.80;74.40;;;;;;9181791;19;20265;-65
2023/03/28 04:21:51;;;;;;;;;;;2.70;74.30;;;;;;9181405;19;19937;-66
2023/03/28 04:24:55;;;;;;;;;;;2.70;74.30;;;;;;9181404;19;20324;-65
2023/03/28 04:28:15;;;;;;;;;;;2.70;74.40;;;;;;9180721;19;19929;-66
2023/03/28 04:31:39;;;;;;;;;;;2.70;74.40;;;;;;9178815;19;20269;-66
2023/03/28 04:35:15;;;;;;;;;;;2.70;74.40;;;;;;9180745;19;19923;-66
2023/03/28 04:38:20;;;;;;;;;;;2.70;74.40;;;;;;9180559;19;20440;-66
2023/03/28 04:41:30;;;;;;;;;;;2.70;74.40;;;;;;9177187;19;19911;-66
2023/03/28 04:44:56;;;;;;;;;;;2.70;74.40;;;;;;9174845;19;19956;-66
2023/03/28 04:48:01;;;;;;;;;;;2.70;74.40;;;;;;9180654;19;19915;-66
2023/03/28 04:51:08;;;;;;;;;;;2.70;74.50;;;;;;9177769;19;19915;-66
2023/03/28 04:54:17;;;;;;;;;;;2.70;74.50;;;;;;9179732;19;19926;-66
2023/03/28 04:57:23;;;;;;;;;;;2.70;74.40;;;;;;9180275;19;19911;-66
2023/03/28 05:00:35;;;;;;;;;;;2.70;74.50;;;;;;9179641;19;19915;-66
2023/03/28 05:03:39;;;;;;;;;;;2.70;74.50;;;;;;9180925;19;20002;-66
2023/03/28 05:06:47;;;;;;;;;;;2.70;74.50;;;;;;9179731;19;19926;-65
2023/03/28 05:09:51;;;;;;;;;;;2.70;74.50;;;;;;9177427;19;19915;-65
2023/03/28 05:12:57;;;;;;;;;;;2.70;74.50;;;;;;9178378;19;19918;-66
2023/03/28 05:16:02;;;;;;;;;;;2.70;74.50;;;;;;9178454;19;19930;-66
2023/03/28 05:19:24;;;;;;;;;;;2.70;74.50;;;;;;9176570;19;19914;-66
2023/03/28 05:22:41;;;;;;;;;;;2.80;75.20;;;;;;9179115;19;19911;-66
2023/03/28 05:25:50;;;;;;;;;;;2.80;74.60;;;;;;9178827;19;19922;-66
2023/03/28 05:28:55;;;;;;;;;;;2.80;74.50;;;;;;9179017;19;20274;-66
2023/03/28 05:32:01;;;;;;;;;;;2.80;74.50;;;;;;9180432;19;19919;-65
2023/03/28 05:35:08;;;;;;;;;;;2.80;74.60;;;;;;9176723;19;19926;-66
2023/03/28 05:38:17;;;;;;;;;;;2.90;74.60;;;;;;9172802;19;20328;-66
2023/03/28 05:41:26;;;;;;;;;;;2.90;74.60;;;;;;9175982;19;19922;-65
2023/03/28 05:44:33;;;;;;;;;;;2.90;74.60;;;;;;9171291;19;19930;-66
2023/03/28 05:47:55;;;;;;;;;;;2.90;74.60;;;;;;9177015;19;19941;-66
2023/03/28 05:51:02;;;;;;;;;;;3.00;74.60;;;;;;9175341;19;20018;-66
2023/03/28 05:54:08;;;;;;;;;;;3.00;74.60;;;;;;9178884;19;19919;-66
2023/03/28 05:57:14;;;;;;;;;;;3.00;74.70;;;;;;9179517;19;19927;-66
2023/03/28 06:00:22;;;;;;;;;;;3.10;74.70;;;;;;9179027;19;19930;-66
2023/03/28 06:03:31;;;;;;;;;;;3.10;74.70;;;;;;9176194;19;20264;-66
2023/03/28 06:06:40;;;;;;;;;;;3.10;74.70;;;;;;9176208;19;20838;-65
2023/03/28 06:09:49;;;;;;;;;;;3.10;74.70;;;;;;9172473;19;19918;-65
2023/03/28 06:12:53;;;;;;;;;;;3.20;74.70;;;;;;9162840;19;20254;-66
2023/03/28 06:16:00;;;;;;;;;;;3.20;74.70;;;;;;9169635;19;19923;-65
2023/03/28 06:19:10;;;;;;;;;;;3.20;74.70;;;;;;9160083;19;19927;-66
2023/03/28 06:22:28;;;;;;;;;;;3.30;74.80;;;;;;9158801;19;19915;-66
2023/03/28 06:25:37;;;;;;;;;;;3.30;74.70;;;;;;9163742;19;19943;-64
2023/03/28 06:28:43;;;;;;;;;;;3.30;74.70;;;;;;9172217;19;19933;-63
2023/03/28 06:31:56;;;;;;;;;;;3.30;74.70;;;;;;9173475;19;20570;-63
2023/03/28 06:35:03;;;;;;;;;;;3.40;74.70;;;;;;9170324;19;20154;-63
2023/03/28 06:38:07;;;;;;;;;;;3.40;74.70;;;;;;9173263;19;20414;-63
2023/03/28 06:41:16;;;;;;;;;;;3.40;74.70;;;;;;9177076;19;19937;-62
2023/03/28 06:44:20;;;;;;;;;;;3.40;74.70;;;;;;9172142;19;19919;-63
2023/03/28 06:47:47;;;;;;;;;;;3.50;74.90;;;;;;9178540;19;19918;-63
2023/03/28 06:50:51;;;;;;;;;;;3.50;74.90;;;;;;9176570;19;19930;-63
2023/03/28 06:53:59;;;;;;;;;;;3.60;75.00;;;;;;9178679;19;20344;-63
2023/03/28 06:57:07;;;;;;;;;;;3.60;75.00;;;;;;9183330;19;19911;-63
2023/03/28 07:00:16;;;;;;;;;;;3.80;75.80;;;;;;9183042;19;19915;-62
2023/03/28 07:03:39;;;;;;;;;;;3.80;75.20;;;;;;9185107;19;19926;-63
2023/03/28 07:06:45;;;;;;;;;;;4.00;75.30;;;;;;9183319;19;19919;-63
2023/03/28 07:09:50;;;;;;;;;;;4.10;75.30;;;;;;9182542;19;20014;-63
2023/03/28 07:12:58;;;;;;;;;;;4.20;75.30;;;;;;9183248;19;20341;-63
2023/03/28 07:16:03;;;;;;;;;;;4.40;75.40;;;;;;9182994;19;19922;-63
2023/03/28 07:19:10;;;;;;;;;;;4.60;75.50;;;;;;9182602;19;20333;-63
2023/03/28 07:22:17;;;;;;;;;;;4.70;75.50;;;;;;9182998;19;19975;-63
2023/03/28 07:25:24;;;;;;;;;;;4.90;75.50;;;;;;9184151;19;19929;-62
2023/03/28 07:28:30;;;;;;;;;;;5.10;75.60;;;;;;9181420;19;20036;-63
2023/03/28 07:31:36;;;;;;;;;;;5.20;75.50;;;;;;9181046;19;19926;-63
2023/03/28 07:34:41;;;;;;;;;;;5.40;75.50;;;;;;9181101;19;19926;-63
2023/03/28 07:37:49;;;;;;;;;;;5.50;75.50;;;;;;9181975;19;19929;-63
2023/03/28 07:41:23;;;;;;;;;;;5.70;75.50;;;;;;9182256;19;19915;-63
2023/03/28 07:44:31;;;;;;;;;;;5.80;75.40;;;;;;9176454;19;19915;-63
2023/03/28 07:47:35;;;;;;;;;;;6.00;75.40;;;;;;9181989;19;19922;-62
2023/03/28 07:50:41;;;;;;;;;;;6.10;75.40;;;;;;9180604;19;20352;-63
2023/03/28 07:53:47;;;;;;;;;;;6.20;75.30;;;;;;9181612;19;19919;-63
2023/03/28 07:56:53;;;;;;;;;;;6.30;75.30;;;;;;9181934;19;19930;-63
2023/03/28 08:00:22;;;;;;;;;;;6.50;75.40;;;;;;9179785;19;19921;-63
2023/03/28 08:03:49;;;;;;;;;;;6.60;75.40;;;;;;9180902;19;19922;-63
2023/03/28 08:06:53;;;;;;;;;;;6.70;75.30;;;;;;9182987;19;19926;-62
2023/03/28 08:09:59;;;;;;;;;;;6.90;75.30;;;;;;9177449;19;19915;-61
2023/03/28 08:13:04;;;;;;;;;;;7.00;75.30;;;;;;9180326;19;20286;-62
2023/03/28 08:16:13;;;;;;;;;;;7.10;75.40;;;;;;9180643;19;19933;-61
2023/03/28 08:19:17;;;;;;;;;;;7.30;75.30;;;;;;9176746;19;20337;-61
2023/03/28 08:22:40;;;;;;;;;;;7.40;75.20;;;;;;9171955;19;19915;-61
2023/03/28 08:26:16;;;;;;;;;;;7.60;75.20;;;;;;9170340;19;19941;-61
2023/03/28 08:29:27;;;;;;;;;;;7.80;75.10;;;;;;9179763;19;20798;-61
2023/03/28 08:32:33;;;;;;;;;;;7.90;75.10;;;;;;9176102;19;19929;-73
2023/03/28 08:35:40;;;;;;;;;;;8.00;75.00;;;;;;9176061;19;20346;-73
2023/03/28 08:38:53;;;;;;;;;;;8.10;75.00;;;;;;9173333;19;19926;-73
2023/03/28 08:42:08;;;;;;;;;;;8.30;75.10;;;;;;9171447;19;19933;-74
2023/03/28 08:45:17;;;;;;;;;;;8.40;75.00;;;;;;9172258;19;19919;-74
2023/03/28 08:48:27;;;;;;;;;;;8.50;75.00;;;;;;9170957;19;19930;-71
2023/03/28 08:51:36;;;;;;;;;;;8.70;75.00;;;;;;9167572;19;19927;-71
2023/03/28 08:54:45;;;;;;;;;;;8.90;75.10;;;;;;9174527;19;19926;-73
2023/03/28 08:57:51;;;;;;;;;;;9.10;75.10;;;;;;9176016;19;19925;-71
2023/03/28 09:00:57;;;;;;;;;;;9.40;75.10;;;;;;9179548;19;20391;-71
2023/03/28 09:04:03;;;;;;;;;;;9.60;75.10;;;;;;9180504;19;19922;-72
2023/03/28 09:07:15;;;;;;;;;;;9.80;74.90;;;;;;9179250;19;19921;-71
2023/03/28 09:10:23;;;;;;;;;;;10.00;74.80;;;;;;9178335;19;20352;-72
2023/03/28 09:13:50;;;;;;;;;;;10.20;74.60;;;;;;9179592;19;19963;-71
2023/03/28 09:17:00;;;;;;;;;;;10.30;74.50;;;;;;9179611;19;19930;-72
2023/03/28 09:20:14;;;;;;;;;;;10.40;74.40;;;;;;9180376;19;19951;-71
2023/03/28 09:23:48;;;;;;;;;;;10.50;74.40;;;;;;9178801;19;19919;-72
2023/03/28 09:27:18;;;;;;;;;;;10.70;74.40;;;;;;9179907;19;20260;-72
2023/03/28 09:30:26;;;;;;;;;;;10.80;74.30;;;;;;9177500;19;19923;-71
2023/03/28 09:33:34;;;;;;;;;;;10.90;74.50;;;;;;9177558;19;19933;-72
2023/03/28 09:36:44;;;;;;;;;;;11.00;74.20;;;;;;9178212;19;19923;-72
2023/03/28 09:40:00;;;;;;;;;;;11.20;74.10;;;;;;9178866;19;19922;-71
2023/03/28 09:43:16;;;;;;;;;;;11.30;74.10;;;;;;9173727;19;19952;-72
2023/03/28 09:46:39;;;;;;;;;;;11.40;74.00;;;;;;9177637;19;19922;-72
2023/03/28 09:50:00;;;;;;;;;;;11.60;74.00;;;;;;9177520;19;19914;-72
2023/03/28 09:53:27;;;;;;;;;;;11.70;74.40;;;;;;9178307;19;20349;-73
2023/03/28 09:56:34;;;;;;;;;;;11.70;73.60;;;;;;9178798;19;19930;-72
2023/03/28 10:00:06;;;;;;;;;;;11.80;73.50;;;;;;9177926;19;20262;-72
2023/03/28 10:03:28;;;;;;;;;;;11.70;73.40;;;;;;9174253;19;20333;-71
2023/03/28 10:06:37;;;;;;;;;;;11.70;73.20;;;;;;9177049;19;19921;-72
2023/03/28 10:09:49;;;;;;;;;;;11.70;73.20;;;;;;9174350;19;19911;-72
2023/03/28 10:12:57;;;;;;;;;;;11.60;73.10;;;;;;9173152;19;19918;-71
2023/03/28 10:16:03;;;;;;;;;;;11.50;73.00;;;;;;9176634;19;20290;-71
2023/03/28 10:19:32;;;;;;;;;;;11.40;73.00;;;;;;9172942;19;19926;-72
2023/03/28 10:22:43;;;;;;;;;;;11.40;73.10;;;;;;9176381;19;19923;-71
2023/03/28 10:25:53;;;;;;;;;;;11.30;73.10;;;;;;9176603;19;20359;-71
2023/03/28 10:28:59;;;;;;;;;;;11.20;73.10;;;;;;9177455;19;19979;-71
2023/03/28 10:32:11;;;;;;;;;;;11.20;73.10;;;;;;9162300;19;19934;-65
2023/03/28 10:35:26;;;;;;;;;;;11.10;73.10;;;;;;9162396;19;19953;-64
2023/03/28 10:38:48;;;;;;;;;;;11.10;73.10;;;;;;9161575;19;20336;-64
2023/03/28 10:42:14;;;;;;;;;;;11.10;73.10;;;;;;9162189;19;19939;-65
2023/03/28 10:45:42;;;;;;;;;;;11.10;73.00;;;;;;9161907;19;19919;-65
2023/03/28 10:48:52;;;;;;;;;;;11.10;73.00;;;;;;9171012;19;20321;-64
2023/03/28 10:51:58;;;;;;;;;;;11.10;73.00;;;;;;9162703;19;19915;-62
2023/03/28 10:55:11;;;;;;;;;;;11.00;73.00;;;;;;9168059;19;19926;-62
2023/03/28 10:58:45;;;;;;;;;;;11.10;72.90;;;;;;9171079;19;19918;-63
2023/03/28 11:02:11;;;;;;;;;;;11.00;72.80;;;;;;9174734;19;19919;-62
2023/03/28 11:05:28;;;;;;;;;;;11.00;72.70;;;;;;9175212;19;19922;-62
2023/03/28 11:08:40;;;;;;;;;;;10.90;72.70;;;;;;9168432;19;19918;-62
2023/03/28 11:11:56;;;;;;;;;;;10.90;72.70;;;;;;9164384;19;20212;-62
2023/03/28 11:15:07;;;;;;;;;;;10.80;72.60;;;;;;9169088;19;19926;-62
2023/03/28 11:18:28;;;;;;;;;;;10.80;72.70;;;;;;9176057;19;19927;-62
2023/03/28 11:21:41;;;;;;;;;;;10.80;72.80;;;;;;9175588;19;19940;-62
2023/03/28 11:24:50;;;;;;;;;;;10.70;72.50;;;;;;9178717;19;20337;-62
2023/03/28 11:28:11;;;;;;;;;;;10.70;72.50;;;;;;9181564;19;19947;-63
2023/03/28 11:31:25;;;;;;;;;;;10.70;72.60;;;;;;9181462;19;19918;-63
2023/03/28 11:34:37;;;;;;;;;;;10.60;72.50;;;;;;9182979;19;19930;-62
2023/03/28 11:37:47;;;;;;;;;;;10.60;72.60;;;;;;9182081;19;20348;-62
2023/03/28 11:40:55;;;;;;;;;;;10.60;72.50;;;;;;9182060;19;19923;-61
2023/03/28 11:44:17;;;;;;;;;;;10.60;72.50;;;;;;9177055;19;20337;-61
2023/03/28 11:47:27;;;;;;;;;;;10.60;72.50;;;;;;9181107;19;19966;-62
2023/03/28 11:50:46;;;;;;;;;;;10.60;72.50;;;;;;9177174;19;19923;-62
2023/03/28 11:54:08;;;;;;;;;;;10.70;72.50;;;;;;9179881;19;20347;-63
2023/03/28 11:57:21;;;;;;;;;;;10.70;72.50;;;;;;9177823;19;19928;-61
2023/03/28 12:00:34;;;;;;;;;;;10.70;72.40;;;;;;9180325;19;20463;-62
2023/03/28 12:03:55;;;;;;;;;;;10.80;72.40;;;;;;9180828;19;20022;-62
2023/03/28 12:07:07;;;;;;;;;;;10.90;72.50;;;;;;9175821;19;19935;-62
2023/03/28 12:10:20;;;;;;;;;;;11.00;72.50;;;;;;9173243;19;19922;-63
2023/03/28 12:13:30;;;;;;;;;;;11.10;72.50;;;;;;9173891;19;19956;-63
2023/03/28 12:16:45;;;;;;;;;;;11.20;72.40;;;;;;9173949;19;19923;-62
2023/03/28 12:19:52;;;;;;;;;;;11.30;72.30;;;;;;9168002;19;19923;-64
2023/03/28 12:23:02;;;;;;;;;;;11.30;72.20;;;;;;9170927;19;19926;-62
2023/03/28 12:26:30;;;;;;;;;;;11.40;72.20;;;;;;9170494;19;20653;-62
2023/03/28 12:29:41;;;;;;;;;;;11.50;72.00;;;;;;9170013;19;19918;-61
2023/03/28 12:32:49;;;;;;;;;;;11.60;71.90;;;;;;9167806;19;19956;-60
2023/03/28 12:36:05;;;;;;;;;;;11.50;71.80;;;;;;9172421;19;20336;-61
2023/03/28 12:39:16;;;;;;;;;;;11.50;71.70;;;;;;9168867;19;19959;-62
2023/03/28 12:42:25;;;;;;;;;;;11.50;71.70;;;;;;9168735;19;19923;-62
2023/03/28 12:45:30;;;;;;;;;;;11.50;71.70;;;;;;9163720;19;19922;-61
2023/03/28 12:48:38;;;;;;;;;;;11.50;71.60;;;;;;9169501;19;19919;-61
2023/03/28 12:51:47;;;;;;;;;;;11.50;71.60;;;;;;9169789;19;19973;-63
2023/03/28 12:54:57;;;;;;;;;;;11.40;71.50;;;;;;9169994;19;20341;-62
2023/03/28 12:58:14;;;;;;;;;;;11.40;71.60;;;;;;9168169;19;19926;-63
2023/03/28 13:01:43;;;;;;;;;;;11.40;71.60;;;;;;9169172;19;19930;-63
2023/03/28 13:05:48;;;;;;;;;;;11.40;71.50;;;;;;9168872;19;19919;-64
2023/03/28 13:09:04;;;;;;;;;;;11.40;71.60;;;;;;9163440;19;20002;-61
2023/03/28 13:12:20;;;;;;;;;;;11.40;71.50;;;;;;9161531;19;19923;-66
2023/03/28 13:15:27;;;;;;;;;;;11.40;71.50;;;;;;9169297;19;19922;-65
2023/03/28 13:18:34;;;;;;;;;;;11.40;71.40;;;;;;9163735;19;19927;-65
2023/03/28 13:21:45;;;;;;;;;;;11.40;71.40;;;;;;9169415;19;19946;-65
2023/03/28 13:24:51;;;;;;;;;;;11.40;71.40;;;;;;9167850;19;19946;-65
2023/03/28 13:27:59;;;;;;;;;;;11.40;71.40;;;;;;9170653;19;19922;-65
2023/03/28 13:31:19;;;;;;;;;;;11.40;71.40;;;;;;9170904;19;19946;-65
2023/03/28 13:34:30;;;;;;;;;;;11.40;71.30;;;;;;9171348;19;19926;-65
2023/03/28 13:37:47;;;;;;;;;;;11.40;71.40;;;;;;9169918;19;19922;-65
2023/03/28 13:40:58;;;;;;;;;;;11.40;71.30;;;;;;9168528;19;19919;-65
2023/03/28 13:44:04;;;;;;;;;;;11.40;71.20;;;;;;9163053;19;19922;-65
2023/03/28 13:47:15;;;;;;;;;;;11.40;71.20;;;;;;9169160;19;19923;-65
2023/03/28 13:50:23;;;;;;;;;;;11.40;71.10;;;;;;9169308;19;19915;-65
2023/03/28 13:53:31;;;;;;;;;;;11.30;70.90;;;;;;9167197;19;19926;-64
2023/03/28 13:56:53;;;;;;;;;;;11.30;70.90;;;;;;9166287;19;20586;-65
2023/03/28 14:00:00;;;;;;;;;;;11.20;70.90;;;;;;9165084;19;20341;-65
2023/03/28 14:03:05;;;;;;;;;;;11.20;70.90;;;;;;9160821;19;20296;-64
2023/03/28 14:06:21;;;;;;;;;;;11.20;70.90;;;;;;9166614;19;20341;-65
2023/03/28 14:09:31;;;;;;;;;;;11.10;70.90;;;;;;9163838;19;19926;-65
2023/03/28 14:12:39;;;;;;;;;;;11.10;70.90;;;;;;9164701;19;20613;-64
2023/03/28 14:15:43;;;;;;;;;;;11.10;70.90;;;;;;9167248;19;19937;-64
2023/03/28 14:18:50;;;;;;;;;;;11.00;70.90;;;;;;9166864;19;19931;-64
2023/03/28 14:21:54;;;;;;;;;;;11.00;70.90;;;;;;9167243;19;19922;-64
2023/03/28 14:25:01;;;;;;;;;;;10.90;70.90;;;;;;9166909;19;19930;-65
2023/03/28 14:28:09;;;;;;;;;;;10.90;70.90;;;;;;9168910;19;19923;-64
2023/03/28 14:31:28;;;;;;;;;;;10.90;70.90;;;;;;9167245;19;20551;-65
2023/03/28 14:34:34;;;;;;;;;;;10.90;70.80;;;;;;9166444;19;19956;-65
2023/03/28 14:37:47;;;;;;;;;;;10.80;70.70;;;;;;9166468;19;19915;-65
2023/03/28 14:40:51;;;;;;;;;;;10.80;70.70;;;;;;9166428;19;19926;-64
2023/03/28 14:44:00;;;;;;;;;;;10.80;70.80;;;;;;9166964;19;19925;-64
2023/03/28 14:47:05;;;;;;;;;;;10.80;70.80;;;;;;9170975;19;19923;-65
2023/03/28 14:50:14;;;;;;;;;;;10.80;70.80;;;;;;9173716;19;19914;-65
2023/03/28 14:53:18;;;;;;;;;;;10.80;70.70;;;;;;9177690;19;19943;-65
2023/03/28 14:56:26;;;;;;;;;;;10.80;70.60;;;;;;9180089;19;19919;-65
2023/03/28 14:59:35;;;;;;;;;;;10.80;70.60;;;;;;9178236;19;19923;-65
2023/03/28 15:02:42;;;;;;;;;;;10.80;70.60;;;;;;9179407;19;19948;-66
2023/03/28 15:05:48;;;;;;;;;;;10.70;70.50;;;;;;9180482;19;20408;-65
2023/03/28 15:08:55;;;;;;;;;;;10.70;70.50;;;;;;9169783;19;19922;-65
2023/03/28 15:12:02;;;;;;;;;;;10.70;70.50;;;;;;9167137;19;20188;-65
2023/03/28 15:15:16;;;;;;;;;;;10.70;70.50;;;;;;9167016;19;19943;-65
2023/03/28 15:18:24;;;;;;;;;;;10.70;70.50;;;;;;9169951;19;19922;-65
2023/03/28 15:21:30;;;;;;;;;;;10.70;70.50;;;;;;9171863;19;19918;-65
2023/03/28 15:24:36;;;;;;;;;;;10.60;70.50;;;;;;9174108;19;19934;-65
2023/03/28 15:27:45;;;;;;;;;;;10.60;70.50;;;;;;9171601;19;19930;-65
2023/03/28 15:30:51;;;;;;;;;;;10.60;70.50;;;;;;9165751;19;19937;-65
2023/03/28 15:33:58;;;;;;;;;;;10.60;70.50;;;;;;9167034;19;19919;-65
2023/03/28 15:37:03;;;;;;;;;;;10.50;70.40;;;;;;9168097;19;19915;-65
2023/03/28 15:40:22;;;;;;;;;;;10.50;70.40;;;;;;9167150;19;19933;-65
2023/03/28 15:43:36;;;;;;;;;;;10.50;70.40;;;;;;9162433;19;19923;-65
2023/03/28 15:46:43;;;;;;;;;;;10.50;70.30;;;;;;9167432;19;20249;-65
2023/03/28 15:49:48;;;;;;;;;;;10.50;70.30;;;;;;9163330;19;19922;-65
2023/03/28 15:52:56;;;;;;;;;;;10.40;70.20;;;;;;9169083;19;19914;-65
2023/03/28 15:56:06;;;;;;;;;;;10.40;70.30;;;;;;9171445;19;20418;-65
2023/03/28 15:59:14;;;;;;;;;;;10.40;70.30;;;;;;9176081;19;20364;-65
2023/03/28 16:02:30;;;;;;;;;;;10.40;70.30;;;;;;9173039;19;19926;-65
2023/03/28 16:05:36;;;;;;;;;;;10.40;70.30;;;;;;9175789;19;19922;-65
2023/03/28 16:08:42;;;;;;;;;;;10.30;70.20;;;;;;9163247;19;19921;-64
2023/03/28 16:11:50;;;;;;;;;;;10.30;70.20;;;;;;9169257;19;20635;-65
2023/03/28 16:15:14;;;;;;;;;;;10.30;70.10;;;;;;9167859;19;19923;-65
2023/03/28 16:18:33;;;;;;;;;;;10.30;70.10;;;;;;9166752;19;19915;-65
2023/03/28 16:21:38;;;;;;;;;;;10.20;70.10;;;;;;9168978;19;19925;-65
2023/03/28 16:24:45;;;;;;;;;;;10.20;70.10;;;;;;9172880;19;19930;-64
2023/03/28 16:27:49;;;;;;;;;;;10.20;70.10;;;;;;9169484;19;19919;-65
2023/03/28 16:30:54;;;;;;;;;;;10.20;70.10;;;;;;9172055;19;19918;-64
2023/03/28 16:34:00;;;;;;;;;;;10.20;70.10;;;;;;9161007;19;19927;-65
2023/03/28 16:37:07;;;;;;;;;;;10.20;70.10;;;;;;9166441;19;20436;-65
2023/03/28 16:40:12;;;;;;;;;;;10.10;70.00;;;;;;9172690;19;19942;-65
2023/03/28 16:43:18;;;;;;;;;;;10.10;70.00;;;;;;9168019;19;19974;-65
2023/03/28 16:46:22;;;;;;;;;;;10.10;70.00;;;;;;9172787;19;19925;-65
2023/03/28 16:49:30;;;;;;;;;;;10.10;70.00;;;;;;9174907;19;19922;-65
2023/03/28 16:52:37;;;;;;;;;;;10.00;69.90;;;;;;9168975;19;19919;-65
2023/03/28 16:55:44;;;;;;;;;;;10.00;69.90;;;;;;9174005;19;19929;-65
2023/03/28 16:58:48;;;;;;;;;;;10.00;70.00;;;;;;9174631;19;19922;-65
2023/03/28 17:01:53;;;;;;;;;;;10.00;69.90;;;;;;9174153;19;19950;-65
2023/03/28 17:04:59;;;;;;;;;;;10.00;69.90;;;;;;9174235;19;19986;-65
2023/03/28 17:08:05;;;;;;;;;;;10.00;70.50;;;;;;9170575;19;20341;-65
2023/03/28 17:11:13;;;;;;;;;;;10.00;69.90;;;;;;9172748;19;19922;-65
2023/03/28 17:14:19;;;;;;;;;;;10.00;69.90;;;;;;9167757;19;19923;-65
2023/03/28 17:17:23;;;;;;;;;;;9.90;69.80;;;;;;9172205;19;19923;-65
2023/03/28 17:20:30;;;;;;;;;;;9.90;69.80;;;;;;9171106;19;20349;-65
2023/03/28 17:23:34;;;;;;;;;;;9.90;69.70;;;;;;9173079;19;19922;-65
2023/03/28 17:26:40;;;;;;;;;;;9.90;69.80;;;;;;9172929;19;19922;-64
2023/03/28 17:29:44;;;;;;;;;;;9.90;69.80;;;;;;9171651;19;19919;-65
2023/03/28 17:32:50;;;;;;;;;;;9.80;69.70;;;;;;9170816;19;20318;-65
2023/03/28 17:35:56;;;;;;;;;;;9.80;69.70;;;;;;9172651;19;19929;-65
2023/03/28 17:39:02;;;;;;;;;;;9.80;69.70;;;;;;9171456;19;20289;-65
2023/03/28 17:42:07;;;;;;;;;;;9.80;69.70;;;;;;9171928;19;19919;-66
2023/03/28 17:45:13;;;;;;;;;;;9.80;69.70;;;;;;9163123;19;20241;-66
2023/03/28 17:48:17;;;;;;;;;;;9.70;69.70;;;;;;9168477;19;20294;-62
2023/03/28 17:51:26;;;;;;;;;;;9.70;69.70;;;;;;9170861;19;19918;-62
2023/03/28 17:54:30;;;;;;;;;;;9.70;69.70;;;;;;9167491;19;19922;-62
2023/03/28 17:57:35;;;;;;;;;;;9.70;69.60;;;;;;9171316;19;19926;-62
2023/03/28 18:00:39;;;;;;;;;;;9.70;69.70;;;;;;9170788;19;19919;-62
2023/03/28 18:03:46;;;;;;;;;;;9.60;69.60;;;;;;9172642;19;20341;-61
2023/03/28 18:07:15;;;;;;;;;;;9.60;69.60;;;;;;9170990;19;19998;-61
2023/03/28 18:10:23;;;;;;;;;;;9.60;69.60;;;;;;9171389;19;20363;-64
2023/03/28 18:13:27;;;;;;;;;;;9.60;69.70;;;;;;9169265;19;20011;-64
2023/03/28 18:16:33;;;;;;;;;;;9.50;70.20;;;;;;9169172;19;19922;-64
2023/03/28 18:19:38;;;;;;;;;;;9.50;69.60;;;;;;9168680;19;19930;-64
2023/03/28 18:22:46;;;;;;;;;;;9.40;69.50;;;;;;9171040;19;19940;-64
2023/03/28 18:25:51;;;;;;;;;;;9.40;69.50;;;;;;9177642;19;19919;-64
2023/03/28 18:28:57;;;;;;;;;;;9.40;70.20;;;;;;9177587;19;19962;-63
2023/03/28 18:32:01;;;;;;;;;;;9.40;69.50;;;;;;9176027;19;20211;-64
2023/03/28 18:35:09;;;;;;;;;;;9.30;69.60;;;;;;9177846;19;19919;-63
2023/03/28 18:38:15;;;;;;;;;;;9.30;69.50;;;;;;9177488;19;20247;-63
2023/03/28 18:41:21;;;;;;;;;;;9.30;69.50;;;;;;9178588;19;19923;-63